Tiempo atmosférico en la estación meteorológica de Lanaja, Huesca (380 m.)



Fecha
DESCASC
Temp. máxima en grados centígrados (hora)
DESCASC
Temp. mínima en grados centígrados (hora)
DESCASC
Temp. media en grados centígrados
DESCASC
Racha de viento máxima en m/sg (hora)
DESCASC
Velocidad máxima media en intervalos de 10 minutos(hora)
DESCASC
Precipitaciones diarias en mm
DESCASC
Precipitaciones de 00:00 a 06:00 en mm
DESCASC
Precipitaciones de 06:00 a 12:00 en mm
DESCASC
Precipitaciones de 12:00 a 18:00 en mm
DESCASC
Precipitaciones de 18:00 a 24:00 en mm
DESCASC
20-09-2020 26.1 (16:10) 15.5 (07:10) 20.8 8.61 (18:30) 5.83 (18:50) 0 0 0 0 0
19-09-2020 25.5 (13:40) 16.8 (07:30) 21.1 7.78 (19:30) 5.28 (19:30) 4.6 3.6 1 0 0
18-09-2020 23.1 (15:30) 18.2 (05:20) 20.7 14.72 (18:50) 9.72 (18:50) 3.2 2.2 0.6 0 0.4
17-09-2020 28.3 (17:20) 19 (00:00) 23.6 8.89 (17:30) 5.28 (16:00) 0 0 0 0 0
16-09-2020 32.1 (16:20) 17.4 (00:00) 24.7 6.11 (14:50) 3.33 (14:50) 0 0 0 0 0
15-09-2020 30.6 (16:30) 18.2 (00:00) 24.4 7.5 (16:10) 4.17 (17:50) 0 0 0 0 0
14-09-2020 31.4 (15:40) 17.5 (00:00) 24.4 9.72 (17:50) 6.39 (17:00) 0 0 0 0 0
13-09-2020 32.1 (16:50) 17.7 (00:00) 24.9 8.61 (16:20) 5 (16:30) 0 0 0 0 0
12-09-2020 31.4 (16:40) 16.5 (00:00) 23.9 5.28 (15:20) 3.33 (18:00) 0 0 0 0 0
11-09-2020 30.8 (15:10) 16.3 (00:00) 23.5 5.28 (16:00) 4.44 (06:00) 0 0 0 0 0
10-09-2020 31.1 (17:30) 14.4 (00:00) 22.8 6.94 (20:40) 4.72 (20:40) 0 0 0 0 0
09-09-2020 28.7 (16:20) 15.8 (00:00) 22.3 9.72 (20:50) 5.83 (20:50) 0 0 0 0 0
08-09-2020 26.9 (16:30) 11.3 (00:00) 19.1 8.06 (16:30) 4.17 (18:00) 0 0 0 0 0
07-09-2020 26.4 (16:10) 13.4 (07:20) 19.9 16.39 (01:50) 11.11 (00:30) 0 0 0 0 0
06-09-2020 26.8 (16:00) 15.8 (00:00) 21.3 15.83 (21:30) 10.56 (18:30) 0 0 0 0 0
05-09-2020 32.4 (18:40) 16.8 (00:00) 24.6 8.89 (20:30) 6.39 (19:50) 0 0 0 0 0
04-09-2020 30.7 (17:00) 16.1 (00:00) 23.4 6.67 (14:10) 4.17 (16:10) 0 0 0 0 0
03-09-2020 29.8 (16:40) 12.4 (00:00) 21.1 6.11 (17:30) 3.33 (01:50) 0 0 0 0 0
02-09-2020 28.2 (18:30) 12.9 (00:00) 20.6 8.89 (03:30) 6.11 (03:40) 0 0 0 0 0
01-09-2020 28 (17:50) 13.4 (00:00) 20.7 6.67 (22:50) 5.56 (22:50) 0 0 0 0 0
31-08-2020 26.1 (18:20) 10.4 (00:00) 18.3 8.61 (00:10) 6.11 (00:10) 0 0 0 0 0
30-08-2020 23.1 (17:00) 12.2 (00:00) 17.7 16.39 (00:10) 11.67 (00:10) 0 0 0 0 0
29-08-2020 23.6 (16:20) 14.9 (00:00) 19.3 18.61 (18:50) 12.78 (17:40) 0 0 0 0 0
28-08-2020 29 (17:40) 17.5 (00:00) 23.3 14.17 (23:50) 10.28 (23:50) 0 0 0 0 0
27-08-2020 34.8 (18:20) 19.8 (00:00) 27.3 8.06 (22:50) 5.83 (22:50) 0 0 0 0 0
26-08-2020 34.3 (18:40) 19 (00:00) 26.6 6.11 (14:50) 4.17 (23:10) 0 0 0 0 0
25-08-2020 34.8 (16:50) 17.6 (00:00) 26.2 6.11 (17:00) 3.33 (15:20) 0 0 0 0 0
24-08-2020 31 (16:50) 15.8 (00:00) 23.4 10.83 (06:40) 8.06 (06:40) 0 0 0 0 0

Gráficas

Temp. máximas Temp. mínimas Temp. medias Precipitaciones Rachas de viento máximas Velocidades máximas media en intervalos de 10 minutos

Datos horarios

Fecha y hora oficial Temperatura (ºC) Velocidad del viento (km/h) Dirección del viento Racha (km/h) Dirección de racha Precipitación (mm) Presión (hPa) Tendencia (hPa) Humedad (%)
2020-09-22 23:00:00 20.9 5 Sudoeste 12 Sudoeste 0 -- -- 49
2020-09-22 22:00:00 21 3 Sudoeste 7 Oeste 0 -- -- 48
2020-09-22 21:00:00 22 5 Sudoeste 8 Sudoeste 0 -- -- 46
2020-09-22 20:00:00 23.4 6 Oeste 13 Noroeste 0 -- -- 42
2020-09-22 19:00:00 24.2 9 Noroeste 24 Noroeste 0 -- -- 40
2020-09-22 18:00:00 25.6 13 Noroeste 23 Oeste 0 -- -- 36
2020-09-22 17:00:00 25.9 12 Noroeste 23 Noroeste 0 -- -- 37
2020-09-22 16:00:00 25.6 12 Noroeste 26 Noroeste 0 -- -- 40
2020-09-22 15:00:00 25.1 12 Noroeste 23 Noroeste 0 -- -- 40
2020-09-22 14:00:00 24 10 Nordeste 22 Norte 0 -- -- 44
2020-09-22 13:00:00 22.2 10 Norte 18 Nordeste 0 -- -- 55
2020-09-22 12:00:00 20.6 6 Norte 17 Nordeste 0 -- -- 60
2020-09-22 11:00:00 18.7 8 Norte 13 Norte 0 -- -- 69
2020-09-22 10:00:00 17.1 5 Nordeste 9 Norte 0 -- -- 75
2020-09-22 09:00:00 15 0 Calma 9 Norte 0 -- -- 79
2020-09-22 08:00:00 12.6 9 Norte 15 Noroeste 0 -- -- 85
2020-09-22 07:00:00 13.7 8 Sudoeste 12 Sudoeste 0 -- -- 83
2020-09-22 06:00:00 13.8 11 Noroeste 14 Norte 0 -- -- 84
2020-09-22 05:00:00 14.4 12 Norte 24 Noroeste 0 -- -- 81
2020-09-22 04:00:00 16 16 Oeste 26 Oeste 0 -- -- 71
2020-09-22 03:00:00 16.3 14 Noroeste 26 Oeste 0 -- -- 69
2020-09-22 02:00:00 18.3 14 Noroeste 21 Noroeste 0 -- -- 60
2020-09-22 01:00:00 18.7 10 Oeste 17 Oeste 0 -- -- 58
2020-09-22 00:00:00 19 10 Noroeste 14 Oeste 0 -- -- 58
2020-09-21 23:00:00 19.1 13 Noroeste 21 Noroeste 0 -- -- 57
2020-09-21 22:00:00 19.8 17 Noroeste 21 Noroeste 0 -- -- 56
2020-09-21 21:00:00 20.4 10 Noroeste 15 Noroeste 0 -- -- 55
2020-09-21 20:00:00 22 14 Noroeste 28 Noroeste 0 -- -- 50
2020-09-21 19:00:00 23.6 19 Noroeste 29 Noroeste 0 -- -- 46
2020-09-21 18:00:00 24 19 Noroeste 34 Noroeste 0 -- -- 47
2020-09-21 17:00:00 25.5 19 Noroeste 33 Noroeste 0 -- -- 41
2020-09-21 16:00:00 25.1 20 Noroeste 31 Noroeste 0 -- -- 43
2020-09-21 15:00:00 24.5 15 Noroeste 26 Noroeste 0 -- -- 46
2020-09-21 14:00:00 23.7 16 Noroeste 26 Noroeste 0 -- -- 49
2020-09-21 13:00:00 22.4 17 Noroeste 26 Noroeste 0 -- -- 50
2020-09-21 12:00:00 20.6 16 Noroeste 25 Noroeste 0 -- -- 56
2020-09-21 11:00:00 19.3 15 Noroeste 21 Noroeste 0 -- -- 62
2020-09-21 10:00:00 18 11 Noroeste 16 Norte 0 -- -- 71
2020-09-21 09:00:00 16.9 6 Norte 12 Oeste 0 -- -- 79
2020-09-21 08:00:00 16.5 6 Norte 17 Noroeste 0 -- -- 83
2020-09-21 07:00:00 16.4 8 Noroeste 15 Noroeste 0 -- -- 83
2020-09-21 06:00:00 16 10 Noroeste 15 Noroeste 0 -- -- 86
2020-09-21 05:00:00 17.1 6 Noroeste 20 Oeste 0 -- -- 78
2020-09-21 04:00:00 17.9 14 Oeste 24 Oeste 0 -- -- 75
2020-09-21 03:00:00 18.4 13 Oeste 20 Oeste 0 -- -- 72
2020-09-21 02:00:00 19.1 14 Oeste 21 Oeste 0 -- -- 69
2020-09-21 01:00:00 19.1 10 Oeste 21 Oeste 0 -- -- 69
2020-09-21 00:00:00 19 13 Oeste 23 Oeste 0 -- -- 72
2020-09-20 23:00:00 18.6 10 Noroeste 21 Oeste 0 -- -- 74
2020-09-20 22:00:00 19.7 14 Oeste 22 Oeste 0 -- -- 66
2020-09-20 21:00:00 19.9 15 Noroeste 19 Oeste 0 -- -- 68
2020-09-20 20:00:00 21.4 13 Oeste 23 Noroeste 0 -- -- 59
2020-09-20 19:00:00 22 19 Noroeste 31 Noroeste 0 -- -- 60
2020-09-20 18:00:00 23.8 16 Noroeste 27 Oeste 0 -- -- 50
2020-09-20 17:00:00 25.7 15 Noroeste 26 Oeste 0 -- -- 43
2020-09-20 16:00:00 25.7 13 Noroeste 27 Noroeste 0 -- -- 43
2020-09-20 15:00:00 25.1 13 Noroeste 27 Oeste 0 -- -- 44
2020-09-20 14:00:00 24.8 15 Noroeste 27 Noroeste 0 -- -- 41
2020-09-20 13:00:00 23.8 16 Noroeste 27 Oeste 0 -- -- 47
2020-09-20 12:00:00 22.2 14 Noroeste 25 Noroeste 0 -- -- 54
2020-09-20 11:00:00 21.2 17 Noroeste 24 Noroeste 0 -- -- 57
2020-09-20 10:00:00 20.3 15 Noroeste 22 Oeste 0 -- -- 62
2020-09-20 09:00:00 17.6 8 Oeste 17 Noroeste 0 -- -- 72
2020-09-20 08:00:00 15.8 13 Oeste 18 Oeste 0 -- -- 78
2020-09-20 07:00:00 15.6 12 Noroeste 16 Noroeste 0 -- -- 78
2020-09-20 06:00:00 16.3 13 Oeste 15 Oeste 0 -- -- 75
2020-09-20 05:00:00 16.9 11 Oeste 17 Noroeste 0 -- -- 72
2020-09-20 04:00:00 17.2 10 Oeste 21 Noroeste 0 -- -- 72
2020-09-20 03:00:00 16.9 16 Oeste 22 Oeste 0 -- -- 75
2020-09-20 02:00:00 16.2 12 Norte 18 Norte 0 -- -- 79
2020-09-20 01:00:00 17.1 8 Noroeste 14 Oeste 0 -- -- 75
2020-09-20 00:00:00 17.1 8 Norte 19 Noroeste 0 -- -- 76
2020-09-19 23:00:00 17 12 Noroeste 18 Noroeste 0 -- -- 78
2020-09-19 22:00:00 18.3 12 Noroeste 16 Oeste 0 -- -- 71
2020-09-19 21:00:00 19.5 12 Noroeste 19 Noroeste 0 -- -- 66
2020-09-19 20:00:00 20.6 14 Noroeste 28 Noroeste 0 -- -- 60
2020-09-19 19:00:00 23.4 13 Noroeste 28 Noroeste 0 -- -- 50
2020-09-19 18:00:00 24 15 Noroeste 26 Noroeste 0 -- -- 46
2020-09-19 17:00:00 24.9 14 Oeste 25 Oeste 0 -- -- 44
2020-09-19 16:00:00 24 16 Oeste 27 Oeste 0 -- -- 45
2020-09-19 15:00:00 24 10 Sudoeste 21 Sudoeste 0 -- -- 49
2020-09-19 14:00:00 24.4 10 Oeste 26 Sudoeste 0 -- -- 49
2020-09-19 13:00:00 23 7 Sur 17 Sur 0 -- -- 64
2020-09-19 12:00:00 21.4 7 Sudeste 13 Sudeste 0 -- -- 78
2020-09-19 11:00:00 19.4 7 Sudeste 13 Este 0 -- -- 84
2020-09-19 10:00:00 18.3 7 Este 10 Este 0 -- -- 92
2020-09-19 09:00:00 17.7 4 Sur 12 Sur 0 -- -- 94
2020-09-19 08:00:00 16.9 4 Sur 17 Sudeste 0 -- -- 93
2020-09-19 07:00:00 17.4 8 Sudeste 15 Sudeste 1 -- -- 94
2020-09-19 06:00:00 17.2 8 Norte 16 Noroeste 3.6 -- -- 93
2020-09-19 05:00:00 17.7 7 Sur 10 Sudoeste 0 -- -- 92
2020-09-19 04:00:00 17.7 4 Sur 8 Sudeste 0 -- -- 92
2020-09-19 03:00:00 17.7 6 Este 10 Este 0 -- -- 92
2020-09-19 02:00:00 17.9 4 Sur 16 Sudeste 0 -- -- 88
2020-09-19 01:00:00 18.4 9 Sur 19 Sudeste 0 -- -- 88
2020-09-19 00:00:00 18.7 13 Este 27 Sudeste 0.4 -- -- 87
2020-09-18 23:00:00 19.7 9 Sur 20 Sudeste 0 -- -- 78
2020-09-18 22:00:00 20.4 14 Sudeste 24 Sudeste 0 -- -- 75
2020-09-18 21:00:00 20.8 10 Sudeste 29 Sudeste 0 -- -- 72
2020-09-18 20:00:00 21.7 19 Sudeste 48 Sudeste 0 -- -- 65
2020-09-18 19:00:00 22.5 31 Sudeste 53 Sudeste 0 -- -- 62
2020-09-18 18:00:00 22.7 21 Sudeste 48 Sudeste 0 -- -- 66
2020-09-18 17:00:00 22.5 27 Sudeste 42 Este 0 -- -- 68
2020-09-18 16:00:00 23 22 Sudeste 41 Este 0 -- -- 69
2020-09-18 15:00:00 22.7 21 Sudeste 41 Sudeste 0 -- -- 72
2020-09-18 14:00:00 22.7 21 Sudeste 40 Sudeste 0 -- -- 72
2020-09-18 13:00:00 21.5 20 Sudeste 36 Sudeste 0 -- -- 82
2020-09-18 12:00:00 20.6 16 Sudeste 30 Sudeste 0 -- -- 83
2020-09-18 11:00:00 19.6 16 Sudeste 27 Sudeste 0.6 -- -- 82
2020-09-18 10:00:00 19.9 6 Sudeste 15 Sudeste 0 -- -- 73
2020-09-18 09:00:00 19 4 Sudeste 15 Este 0 -- -- 72
2020-09-18 08:00:00 18.5 8 Este 17 Sudeste 0 -- -- 72
2020-09-18 07:00:00 18.7 9 Sudeste 16 Sudeste 0 -- -- 75
2020-09-18 06:00:00 18.4 5 Sudeste 14 Sudeste 0.2 -- -- 77
2020-09-18 05:00:00 18.4 10 Sudeste 20 Sudeste 2 -- -- 80
2020-09-18 04:00:00 19.3 6 Sudeste 10 Este 0 -- -- 74
2020-09-18 03:00:00 19.6 4 Sur 14 Sudeste 0 -- -- 73
2020-09-18 02:00:00 20 7 Sudeste 17 Sudeste 0 -- -- 71
2020-09-18 01:00:00 20.4 7 Sudeste 18 Sudeste 0 -- -- 67
2020-09-18 00:00:00 21.4 9 Sudeste 22 Sudeste 0 -- -- 63
2020-09-17 23:00:00 22.3 14 Sudeste 21 Sudeste 0 -- -- 62
2020-09-17 22:00:00 23.6 12 Sudeste 25 Sudeste 0 -- -- 59
2020-09-17 21:00:00 24.4 15 Sudeste 27 Sudeste 0 -- -- 59
2020-09-17 20:00:00 25.5 15 Sudeste 27 Sudeste 0 -- -- 54
2020-09-17 19:00:00 27.4 16 Sudeste 29 Sudeste 0 -- -- 40
2020-09-17 18:00:00 27.5 16 Este 32 Este 0 -- -- 40
2020-09-17 17:00:00 27.9 15 Este 29 Este 0 -- -- 39
2020-09-17 16:00:00 27.2 19 Este 31 Sudeste 0 -- -- 43
2020-09-17 15:00:00 26.7 18 Sudeste 30 Sudeste 0 -- -- 46
2020-09-17 14:00:00 25.7 12 Sudeste 20 Este 0 -- -- 50
2020-09-17 13:00:00 23.7 12 Sudeste 21 Este 0 -- -- 55
2020-09-17 12:00:00 22.5 9 Sudeste 18 Sur 0 -- -- 59
2020-09-17 11:00:00 22 8 Sudeste 17 Sudeste 0 -- -- 61
2020-09-17 10:00:00 21.1 10 Sur 15 Sudeste 0 -- -- 65
2020-09-17 09:00:00 19.6 5 Sudoeste 9 Sudoeste 0 -- -- 72
2020-09-17 08:00:00 19 4 Sudoeste 8 Sudoeste 0 -- -- 74
2020-09-17 07:00:00 19.2 4 Sudoeste 8 Sudoeste 0 -- -- 74
2020-09-17 06:00:00 19.4 5 Sudoeste 7 Sudoeste 0 -- -- 76
2020-09-17 05:00:00 19.6 4 Sudoeste 6 Sudoeste 0 -- -- 75
2020-09-17 04:00:00 20.1 3 Sudoeste 11 Sudeste 0 -- -- 74
2020-09-17 03:00:00 20.4 4 Sudeste 10 Este 0 -- -- 74
2020-09-17 02:00:00 20.7 2 Sur 12 Este 0 -- -- 74
2020-09-17 01:00:00 21.3 7 Sudeste 17 Sudeste 0 -- -- 72
2020-09-17 00:00:00 22 9 Sudeste 18 Sudeste 0 -- -- 67
2020-09-16 23:00:00 24.5 8 Sudeste 19 Sur 0 -- -- 55
2020-09-16 22:00:00 25.5 9 Sur 15 Sur 0 -- -- 45
2020-09-16 21:00:00 26.9 3 Sur 12 Sudeste 0 -- -- 41
2020-09-16 20:00:00 28.9 7 Este 13 Sudeste 0 -- -- 36
2020-09-16 19:00:00 31.1 10 Sudeste 15 Sudeste 0 -- -- 31
2020-09-16 18:00:00 31.5 8 Sudeste 17 Sudeste 0 -- -- 30
2020-09-16 17:00:00 31.5 10 Este 17 Este 0 -- -- 31
2020-09-16 16:00:00 31.5 10 Sudeste 20 Este 0 -- -- 32
2020-09-16 15:00:00 30.9 8 Este 22 Sudeste 0 -- -- 33
2020-09-16 14:00:00 30 8 Sudeste 17 Este 0 -- -- 40
2020-09-16 13:00:00 28.4 6 Sudeste 15 Sudeste 0 -- -- 44
2020-09-16 12:00:00 26.6 7 Sudeste 12 Sur 0 -- -- 48
2020-09-16 11:00:00 23.6 6 Nordeste 11 Nordeste 0 -- -- 57
2020-09-16 10:00:00 21.3 4 Norte 6 Norte 0 -- -- 68
2020-09-16 09:00:00 17.6 6 Norte 8 Norte 0 -- -- 79
2020-09-16 08:00:00 19.2 5 Sudoeste 6 Sudoeste 0 -- -- 73
2020-09-16 07:00:00 19.1 4 Sudoeste 6 Sudoeste 0 -- -- 74
2020-09-16 06:00:00 19.2 2 Sudoeste 6 Sudoeste 0 -- -- 73
2020-09-16 05:00:00 19.5 4 Sudoeste 10 Sudoeste 0 -- -- 70
2020-09-16 04:00:00 19.6 5 Sudoeste 8 Noroeste 0 -- -- 69
2020-09-16 03:00:00 19.4 5 Noroeste 9 Noroeste 0 -- -- 66
2020-09-16 02:00:00 20.1 3 Oeste 6 Noroeste 0 -- -- 62
2020-09-16 01:00:00 21.8 5 Sudeste 12 Este 0 -- -- 56
2020-09-16 00:00:00 23.4 9 Este 14 Este 0 -- -- 52
2020-09-15 23:00:00 25.4 8 Sur 14 Sur 0 -- -- 47
2020-09-15 22:00:00 24.1 4 Oeste 12 Sudoeste 0 -- -- 50
2020-09-15 21:00:00 25.9 6 Sur 16 Sudeste 0 -- -- 44
2020-09-15 20:00:00 27.7 6 Sudeste 17 Este 0 -- -- 39
2020-09-15 19:00:00 29.1 10 Este 21 Este 0 -- -- 36
2020-09-15 18:00:00 30 14 Este 26 Sudeste 0 -- -- 34
2020-09-15 17:00:00 30.6 12 Este 27 Este 0 -- -- 34
2020-09-15 16:00:00 30.3 11 Este 23 Este 0 -- -- 34
2020-09-15 15:00:00 30 12 Este 20 Este 0 -- -- 35
2020-09-15 14:00:00 28.8 9 Este 20 Este 0 -- -- 38
2020-09-15 13:00:00 27.9 11 Este 18 Este 0 -- -- 39
2020-09-15 12:00:00 26.4 9 Nordeste 16 Nordeste 0 -- -- 43
2020-09-15 11:00:00 26.3 2 Sur 10 Este 0 -- -- 42
2020-09-15 10:00:00 23.1 5 Sudoeste 16 Sudoeste 0 -- -- 52
2020-09-15 09:00:00 19.2 8 Sudoeste 15 Sudoeste 0 -- -- 68
2020-09-15 08:00:00 18.6 6 Sudoeste 10 Sudoeste 0 -- -- 68
2020-09-15 07:00:00 18.3 5 Oeste 11 Nordeste 0 -- -- 70
2020-09-15 06:00:00 18.4 11 Nordeste 18 Norte 0 -- -- 70
2020-09-15 05:00:00 19.5 4 Sudoeste 8 Sudeste 0 -- -- 62
2020-09-15 04:00:00 19.7 4 Sur 9 Sudoeste 0 -- -- 61
2020-09-15 03:00:00 19.3 6 Sudoeste 10 Sur 0 -- -- 64
2020-09-15 02:00:00 19.6 5 Sudeste 11 Sudeste 0 -- -- 63
2020-09-15 01:00:00 19.9 6 Este 14 Este 0 -- -- 63
2020-09-15 00:00:00 20.5 6 Este 15 Este 0 -- -- 60
2020-09-14 23:00:00 21.6 7 Sudeste 18 Este 0 -- -- 56
2020-09-14 22:00:00 24.1 10 Sudeste 19 Sudeste 0 -- -- 49
2020-09-14 21:00:00 25.5 10 Sudeste 22 Sudeste 0 -- -- 44
2020-09-14 20:00:00 27.5 16 Sur 27 Sudeste 0 -- -- 36
2020-09-14 19:00:00 29.3 16 Sudeste 32 Este 0 -- -- 33
2020-09-14 18:00:00 30.8 19 Este 35 Este 0 -- -- 29
2020-09-14 17:00:00 30.1 23 Este 33 Este 0 -- -- 32
2020-09-14 16:00:00 31.2 17 Sudeste 29 Este 0 -- -- 32
2020-09-14 15:00:00 30.5 13 Este 28 Este 0 -- -- 34
2020-09-14 14:00:00 29.5 10 Sudeste 22 Este 0 -- -- 36
2020-09-14 13:00:00 28 12 Este 20 Este 0 -- -- 39
2020-09-14 12:00:00 26.3 10 Este 20 Sudeste 0 -- -- 41
2020-09-14 11:00:00 24.3 9 Sudeste 16 Sudeste 0 -- -- 44
2020-09-14 10:00:00 22.5 6 Sudeste 9 Sudeste 0 -- -- 51
2020-09-14 09:00:00 20.2 5 Sudeste 9 Oeste 0 -- -- 55
2020-09-14 08:00:00 17.6 7 Sudoeste 11 Sudoeste 0 -- -- 63
2020-09-14 07:00:00 18.2 4 Sudoeste 6 Oeste 0 -- -- 61
2020-09-14 06:00:00 18.4 3 Sudoeste 5 Sudoeste 0 -- -- 62
2020-09-14 05:00:00 18.3 3 Oeste 5 Sudoeste 0 -- -- 64
2020-09-14 04:00:00 18.3 3 Oeste 6 Sudoeste 0 -- -- 64
2020-09-14 03:00:00 18.7 4 Sudoeste 7 Oeste 0 -- -- 63
2020-09-14 02:00:00 20.2 4 Sur 16 Este 0 -- -- 57
2020-09-14 01:00:00 21.7 13 Este 22 Este 0 -- -- 50
2020-09-14 00:00:00 23.5 8 Sudeste 21 Sur 0 -- -- 44
2020-09-13 23:00:00 24.8 16 Sur 23 Sur 0 -- -- 39
2020-09-13 22:00:00 25.8 15 Sur 27 Sur 0 -- -- 36
2020-09-13 21:00:00 26.1 15 Sudeste 22 Sur 0 -- -- 39
2020-09-13 20:00:00 28.4 9 Sudeste 19 Este 0 -- -- 34
2020-09-13 19:00:00 31.1 10 Este 24 Este 0 -- -- 30
2020-09-13 18:00:00 31.6 16 Este 27 Sudeste 0 -- -- 29
2020-09-13 17:00:00 31.8 15 Este 31 Este 0 -- -- 29
2020-09-13 16:00:00 31.6 16 Sudeste 28 Sudeste 0 -- -- 31
2020-09-13 15:00:00 31 16 Sudeste 28 Sudeste 0 -- -- 31
2020-09-13 14:00:00 30.3 10 Sudeste 24 Sudeste 0 -- -- 35
2020-09-13 13:00:00 28.3 12 Sudeste 20 Sudeste 0 -- -- 40
2020-09-13 12:00:00 26.7 7 Sudeste 17 Este 0 -- -- 42
2020-09-13 11:00:00 24.6 9 Sudeste 19 Este 0 -- -- 45
2020-09-13 10:00:00 23.7 5 Sur 8 Sur 0 -- -- 48
2020-09-13 09:00:00 20.6 5 Sudoeste 9 Sudoeste 0 -- -- 57
2020-09-13 08:00:00 18.2 4 Sudoeste 9 Sudoeste 0 -- -- 62
2020-09-13 07:00:00 17.8 6 Sudoeste 10 Sudoeste 0 -- -- 63
2020-09-13 06:00:00 17.7 6 Sudoeste 8 Sudoeste 0 -- -- 64
2020-09-13 05:00:00 18.1 4 Oeste -- -- 0 -- -- 63
2020-09-13 04:00:00 18.1 3 Noroeste 6 Noroeste 0 -- -- 63
2020-09-13 03:00:00 18.8 2 Sudoeste 9 Nordeste 0 -- -- 61
2020-09-13 02:00:00 19.5 5 Nordeste 12 Nordeste 0 -- -- 60
2020-09-13 01:00:00 20.7 9 Nordeste 12 Nordeste 0 -- -- 52
2020-09-13 00:00:00 22.2 5 Sudoeste 13 Sur 0 -- -- 47
2020-09-12 23:00:00 22.9 4 Sur 9 Sur 0 -- -- 44
2020-09-12 22:00:00 24.8 5 Sudoeste 8 Sudoeste 0 -- -- 38
2020-09-12 21:00:00 26.6 5 Sudoeste 6 Sudoeste 0 -- -- 36
2020-09-12 20:00:00 29 4 Este 10 Sudeste 0 -- -- 32
2020-09-12 19:00:00 30.4 6 Este 15 Nordeste 0 -- -- 26
2020-09-12 18:00:00 30.3 12 Nordeste 18 Este 0 -- -- 32
2020-09-12 17:00:00 31 9 Este 15 Nordeste 0 -- -- 33
2020-09-12 16:00:00 31.3 8 Sudeste 19 Este 0 -- -- 33
2020-09-12 15:00:00 29.9 8 Sudeste 17 Sudeste 0 -- -- 38
2020-09-12 14:00:00 29 9 Sur 18 Sudeste 0 -- -- 42
2020-09-12 13:00:00 27.4 5 Sudeste 14 Nordeste 0 -- -- 44
2020-09-12 12:00:00 24.3 9 Norte 15 Nordeste 0 -- -- 54
2020-09-12 11:00:00 23.9 6 Este 10 Este 0 -- -- 54
2020-09-12 10:00:00 22.6 4 Sur 9 Sur 0 -- -- 55
2020-09-12 09:00:00 19.1 0 Calma 3 Norte 0 -- -- 61
2020-09-12 08:00:00 17.6 -- -- -- -- 0 -- -- 65
2020-09-12 07:00:00 17.1 5 Sudoeste 6 Sudoeste 0 -- -- 71
2020-09-12 06:00:00 17.2 0 Calma 9 Noroeste 0 -- -- 71
2020-09-12 05:00:00 16.7 4 Noroeste 6 Noroeste 0 -- -- 69
2020-09-12 04:00:00 16.7 3 Norte 8 Este 0 -- -- 67
2020-09-12 03:00:00 18.8 4 Sudeste 12 Sudeste 0 -- -- 62
2020-09-12 02:00:00 19.1 6 Sur 13 Sudeste 0 -- -- 62
2020-09-12 01:00:00 20.6 3 Nordeste 15 Sudeste 0 -- -- 51
2020-09-12 00:00:00 21.8 6 Sudeste 12 Oeste 0 -- -- 47
2020-09-11 23:00:00 23.2 8 Noroeste 10 Noroeste 0 -- -- 43
2020-09-11 22:00:00 24.1 5 Noroeste 10 Oeste 0 -- -- 42
2020-09-11 21:00:00 26.4 5 Sudoeste 9 Sur 0 -- -- 40
2020-09-11 20:00:00 28.9 5 Sur 11 Sudeste 0 -- -- 36
2020-09-11 19:00:00 30.1 5 Este 13 Este 0 -- -- 33
2020-09-11 18:00:00 30.4 9 Sudeste 15 Sur 0 -- -- 33
2020-09-11 17:00:00 30.7 7 Nordeste 18 Este 0 -- -- 32
2020-09-11 16:00:00 29.9 11 Nordeste 19 Nordeste 0 -- -- 34
2020-09-11 15:00:00 30.4 5 Sur 15 Sur 0 -- -- 34
2020-09-11 14:00:00 28.6 9 Sudeste 18 Sudeste 0 -- -- 36
2020-09-11 13:00:00 27.3 7 Nordeste 15 Nordeste 0 -- -- 39
2020-09-11 12:00:00 25.4 5 Nordeste 12 Noroeste 0 -- -- 45
2020-09-11 11:00:00 23 7 Nordeste 14 Nordeste 0 -- -- 55
2020-09-11 10:00:00 21 8 Norte 13 Norte 0 -- -- 60
2020-09-11 09:00:00 18.7 6 Noroeste 11 Oeste 0 -- -- 68
2020-09-11 08:00:00 16.4 10 Noroeste 13 Oeste 0 -- -- 76
2020-09-11 07:00:00 16.6 10 Noroeste 16 Noroeste 0 -- -- 78
2020-09-11 06:00:00 17.2 16 Noroeste 18 Noroeste 0 -- -- 76
2020-09-11 05:00:00 17 14 Noroeste 15 Noroeste 0 -- -- 76
2020-09-11 04:00:00 16.7 12 Noroeste 13 Noroeste 0 -- -- 77
2020-09-11 03:00:00 16.5 12 Noroeste 14 Noroeste 0 -- -- 76
2020-09-11 02:00:00 17.7 4 Nordeste 9 Sudoeste 0 -- -- 73
2020-09-11 01:00:00 18.8 6 Sudoeste 17 Sudeste 0 -- -- 71
2020-09-11 00:00:00 19.9 10 Sudeste 21 Sudeste 0 -- -- 67
2020-09-10 23:00:00 22.5 6 Este 18 Nordeste 0 -- -- 49
2020-09-10 22:00:00 23.1 6 Noroeste 19 Oeste 0 -- -- 42
2020-09-10 21:00:00 25.4 16 Noroeste 25 Oeste 0 -- -- 37
2020-09-10 20:00:00 28.1 5 Sudoeste 12 Sudeste 0 -- -- 34
2020-09-10 19:00:00 30.4 6 Oeste 17 Oeste 0 -- -- 28
2020-09-10 18:00:00 29.8 10 Noroeste 24 Oeste 0 -- -- 29
2020-09-10 17:00:00 29 5 Noroeste 15 Noroeste 0 -- -- 31
2020-09-10 16:00:00 28.8 6 Noroeste 18 Norte 0 -- -- 34
2020-09-10 15:00:00 28.3 7 Nordeste 19 Nordeste 0 -- -- 38
2020-09-10 14:00:00 26.6 10 Nordeste 21 Norte 0 -- -- 44
2020-09-10 13:00:00 24.9 8 Norte 14 Oeste 0 -- -- 47
2020-09-10 12:00:00 23.7 4 Oeste 13 Nordeste 0 -- -- 50
2020-09-10 11:00:00 21.7 4 Este 11 Nordeste 0 -- -- 59
2020-09-10 10:00:00 18.6 5 Norte 7 Noroeste 0 -- -- 72
2020-09-10 09:00:00 16 3 Nordeste 6 Nordeste 0 -- -- 82
2020-09-10 08:00:00 15.5 3 Noroeste 6 Norte 0 -- -- 83
2020-09-10 07:00:00 15.2 4 Sudoeste 6 Sur 0 -- -- 82
2020-09-10 06:00:00 15.6 8 Noroeste 17 Noroeste 0 -- -- 86
2020-09-10 05:00:00 15 10 Norte 13 Oeste 0 -- -- 83
2020-09-10 04:00:00 15.3 3 Sudoeste 14 Noroeste 0 -- -- 87
2020-09-10 03:00:00 15.4 9 Noroeste 14 Noroeste 0 -- -- 86
2020-09-10 02:00:00 15.5 11 Noroeste 14 Noroeste 0 -- -- 86
2020-09-10 01:00:00 16.1 7 Norte 9 Noroeste 0 -- -- 84
2020-09-10 00:00:00 17.5 0 Calma 14 Este 0 -- -- 80
2020-09-09 23:00:00 18.4 8 Sudeste 19 Sudeste 0 -- -- 76
2020-09-09 22:00:00 19.3 13 Sudeste 33 Sudeste 0 -- -- 72
2020-09-09 21:00:00 20.4 19 Sudeste 35 Sudeste 0 -- -- 67
2020-09-09 20:00:00 22.8 18 Sudeste 27 Sudeste 0 -- -- 58
2020-09-09 19:00:00 25 12 Sudeste 21 Sudeste 0 -- -- 45
2020-09-09 18:00:00 25.6 12 Sudeste 24 Sudeste 0 -- -- 44
2020-09-09 17:00:00 27 14 Sudeste 22 Sur 0 -- -- 41
2020-09-09 16:00:00 27.2 8 Noroeste 21 Norte 0 -- -- 34
2020-09-09 15:00:00 25.6 3 Sur 22 Norte 0 -- -- 39
2020-09-09 14:00:00 25.2 9 Oeste 19 Noroeste 0 -- -- 42
2020-09-09 13:00:00 24.5 7 Norte 23 Norte 0 -- -- 47
2020-09-09 12:00:00 23 8 Nordeste 15 Nordeste 0 -- -- 52
2020-09-09 11:00:00 20.1 6 Norte 9 Norte 0 -- -- 63
2020-09-09 10:00:00 17.8 4 Norte 8 Noroeste 0 -- -- 71
2020-09-09 09:00:00 16 5 Sudoeste 9 Sudoeste 0 -- -- 75
2020-09-09 08:00:00 16.2 0 Calma 8 Norte 0 -- -- 71
2020-09-09 07:00:00 16.1 0 Calma 8 Oeste 0 -- -- 71
2020-09-09 06:00:00 16.2 3 Oeste 14 Noroeste 0 -- -- 71
2020-09-09 05:00:00 16 11 Noroeste 13 Noroeste 0 -- -- 74
2020-09-09 04:00:00 16.4 9 Noroeste 10 Noroeste 0 -- -- 70
2020-09-09 03:00:00 17.3 6 Noroeste 10 Noroeste 0 -- -- 70
2020-09-09 02:00:00 18.6 3 Sudeste 6 Sudeste 0 -- -- 67
2020-09-09 01:00:00 18.1 6 Nordeste 12 Este 0 -- -- 68
2020-09-09 00:00:00 19 6 Sudoeste 25 Este 0 -- -- 65
2020-09-08 23:00:00 19.8 13 Sudeste 27 Sudeste 0 -- -- 61
2020-09-08 22:00:00 22 5 Sudeste 11 Este 0 -- -- 41
2020-09-08 21:00:00 22.8 8 Este 14 Este 0 -- -- 38
2020-09-08 20:00:00 24.4 8 Este 19 Este 0 -- -- 35
2020-09-08 19:00:00 25.1 14 Sudeste 25 Sudeste 0 -- -- 33
2020-09-08 18:00:00 26.3 15 Sudeste 24 Este 0 -- -- 27
2020-09-08 17:00:00 26.3 14 Este 29 Este 0 -- -- 26
2020-09-08 16:00:00 26.7 8 Sudeste 20 Sudeste 0 -- -- 26
2020-09-08 15:00:00 26.3 5 Nordeste 17 Norte 0 -- -- 26
2020-09-08 14:00:00 25.2 11 Nordeste 18 Nordeste 0 -- -- 28
2020-09-08 13:00:00 23.6 5 Noroeste 15 Norte 0 -- -- 29
2020-09-08 12:00:00 22.6 6 Norte 14 Norte 0 -- -- 32
2020-09-08 11:00:00 20.3 9 Norte 15 Noroeste 0 -- -- 37
2020-09-08 10:00:00 17.6 11 Norte 16 Noroeste 0 -- -- 42
2020-09-08 09:00:00 14.9 12 Noroeste 15 Noroeste 0 -- -- 51
2020-09-08 08:00:00 12.4 13 Noroeste 14 Noroeste 0 -- -- 62
2020-09-08 07:00:00 11.8 11 Noroeste 14 Noroeste 0 -- -- 65
2020-09-08 06:00:00 11.4 12 Noroeste 16 Noroeste 0 -- -- 70
2020-09-08 05:00:00 12 13 Noroeste 17 Noroeste 0 -- -- 68
2020-09-08 04:00:00 12.7 13 Noroeste 15 Noroeste 0 -- -- 60
2020-09-08 03:00:00 15 9 Nordeste 12 Nordeste 0 -- -- 51
2020-09-08 02:00:00 16.1 4 Este 12 Sudeste 0 -- -- 47
2020-09-08 01:00:00 15.4 3 Sur 16 Este 0 -- -- 48
2020-09-08 00:00:00 16.2 12 Noroeste 26 Oeste 0 -- -- 44
2020-09-07 23:00:00 17.2 18 Noroeste 28 Oeste 0 -- -- 42
2020-09-07 22:00:00 18.8 17 Oeste 29 Oeste 0 -- -- 38
2020-09-07 21:00:00 20.6 18 Oeste 32 Oeste 0 -- -- 34
2020-09-07 20:00:00 22.7 19 Oeste 34 Noroeste 0 -- -- 31
2020-09-07 19:00:00 24.6 23 Noroeste 33 Oeste 0 -- -- 28
2020-09-07 18:00:00 25.7 17 Oeste 32 Oeste 0 -- -- 26
2020-09-07 17:00:00 25.9 13 Oeste 35 Noroeste 0 -- -- 27
2020-09-07 16:00:00 25.6 12 Oeste 31 Oeste 0 -- -- 29
2020-09-07 15:00:00 25.2 8 Norte 22 Oeste 0 -- -- 29
2020-09-07 14:00:00 23.8 6 Nordeste 20 Norte 0 -- -- 32
2020-09-07 13:00:00 22.7 12 Norte 19 Nordeste 0 -- -- 36
2020-09-07 12:00:00 20.5 13 Norte 23 Norte 0 -- -- 39
2020-09-07 11:00:00 18.6 18 Norte 31 Norte 0 -- -- 44
2020-09-07 10:00:00 17.2 20 Noroeste 32 Noroeste 0 -- -- 48
2020-09-07 09:00:00 15 24 Noroeste 37 Noroeste 0 -- -- 55
2020-09-07 08:00:00 13.7 24 Noroeste 40 Noroeste 0 -- -- 59
2020-09-07 07:00:00 13.6 26 Noroeste 43 Noroeste 0 -- -- 60
2020-09-07 06:00:00 14.1 28 Noroeste 49 Noroeste 0 -- -- 59
2020-09-07 05:00:00 14.9 31 Noroeste 47 Noroeste 0 -- -- 58
2020-09-07 04:00:00 15 34 Noroeste 49 Noroeste 0 -- -- 58
2020-09-07 03:00:00 15.2 35 Noroeste 52 Noroeste 0 -- -- 60
2020-09-07 02:00:00 15.7 39 Noroeste 59 Noroeste 0 -- -- 60
2020-09-07 01:00:00 16.1 40 Noroeste 56 Noroeste 0 -- -- 59
2020-09-07 00:00:00 16.5 28 Noroeste 46 Noroeste 0 -- -- 57
2020-09-06 23:00:00 17.1 30 Noroeste 46 Noroeste 0 -- -- 56
2020-09-06 22:00:00 18.2 28 Noroeste 57 Noroeste 0 -- -- 53
2020-09-06 21:00:00 19.9 32 Noroeste 46 Noroeste 0 -- -- 47
2020-09-06 20:00:00 21.7 21 Noroeste 47 Noroeste 0 -- -- 42
2020-09-06 19:00:00 24.5 23 Noroeste 50 Noroeste 0 -- -- 35
2020-09-06 18:00:00 25.8 27 Noroeste 43 Noroeste 0 -- -- 36
2020-09-06 17:00:00 26.4 27 Noroeste 41 Noroeste 0 -- -- 35
2020-09-06 16:00:00 26.8 25 Oeste 43 Noroeste 0 -- -- 37
2020-09-06 15:00:00 26 27 Noroeste 42 Oeste 0 -- -- 39
2020-09-06 14:00:00 25.6 21 Noroeste 39 Oeste 0 -- -- 41
2020-09-06 13:00:00 24.4 22 Oeste 37 Noroeste 0 -- -- 43
2020-09-06 12:00:00 23.6 18 Noroeste 32 Noroeste 0 -- -- 45
2020-09-06 11:00:00 21.3 21 Noroeste 31 Noroeste 0 -- -- 52
2020-09-06 10:00:00 19 19 Noroeste 28 Noroeste 0 -- -- 61
2020-09-06 09:00:00 17.4 17 Noroeste 28 Noroeste 0 -- -- 68
2020-09-06 08:00:00 16.1 18 Noroeste 31 Noroeste 0 -- -- 72
2020-09-06 07:00:00 16 18 Noroeste 28 Noroeste 0 -- -- 73
2020-09-06 06:00:00 16 13 Noroeste 23 Oeste 0 -- -- 73
2020-09-06 05:00:00 15.9 7 Oeste 14 Noroeste 0 -- -- 75
2020-09-06 04:00:00 16.4 10 Noroeste 17 Noroeste 0 -- -- 73
2020-09-06 03:00:00 17.5 14 Noroeste 23 Oeste 0 -- -- 70
2020-09-06 02:00:00 18.9 10 Noroeste 18 Noroeste 0 -- -- 63
2020-09-06 01:00:00 20 9 Oeste 17 Oeste 0 -- -- 59
2020-09-06 00:00:00 20.3 12 Oeste 29 Noroeste 0 -- -- 59
2020-09-05 23:00:00 20.8 7 Noroeste 17 Noroeste 0 -- -- 58
2020-09-05 22:00:00 22.8 11 Noroeste 26 Noroeste 0 -- -- 54
2020-09-05 21:00:00 25.2 21 Noroeste 32 Noroeste 0 -- -- 47
2020-09-05 20:00:00 28.5 22 Noroeste 31 Noroeste 0 -- -- 41
2020-09-05 19:00:00 31.9 11 Noroeste 19 Noroeste 0 -- -- 29
2020-09-05 18:00:00 31.7 7 Nordeste 17 Este 0 -- -- 32
2020-09-05 17:00:00 31.3 8 Nordeste 21 Norte 0 -- -- 34
2020-09-05 16:00:00 30.2 11 Nordeste 19 Nordeste 0 -- -- 36
2020-09-05 15:00:00 28.9 8 Norte 18 Nordeste 0 -- -- 40
2020-09-05 14:00:00 28 8 Norte 17 Nordeste 0 -- -- 41
2020-09-05 13:00:00 26.6 8 Nordeste 14 Nordeste 0 -- -- 43
2020-09-05 12:00:00 25.1 4 Sur 12 Sudeste 0 -- -- 49
2020-09-05 11:00:00 23.4 5 Noroeste 13 Sudeste 0 -- -- 60
2020-09-05 10:00:00 21 4 Norte 10 Norte 0 -- -- 65
2020-09-05 09:00:00 19.2 4 Sudoeste 8 Sudoeste 0 -- -- 69
2020-09-05 08:00:00 17.1 3 Sudoeste 6 Sudoeste 0 -- -- 76
2020-09-05 07:00:00 17 4 Sudoeste 5 Sudoeste 0 -- -- 75
2020-09-05 06:00:00 17.2 4 Oeste 6 Noroeste 0 -- -- 77
2020-09-05 05:00:00 17.5 3 Noroeste 7 Noroeste 0 -- -- 78
2020-09-05 04:00:00 17.5 4 Noroeste 6 Noroeste 0 -- -- 79
2020-09-05 03:00:00 17.7 0 Calma 10 Norte 0 -- -- 78
2020-09-05 02:00:00 17.9 6 Norte 11 Este 0 -- -- 78
2020-09-05 01:00:00 19.6 8 Este 12 Este 0 -- -- 73
2020-09-05 00:00:00 21.3 8 Este 19 Sudeste 0 -- -- 66
2020-09-04 23:00:00 22.6 12 Sudeste 16 Sudeste 0 -- -- 60
2020-09-04 22:00:00 23.7 5 Sudoeste 11 Sur 0 -- -- 47
2020-09-04 21:00:00 26.3 5 Sudeste 15 Este 0 -- -- 42
2020-09-04 20:00:00 28.7 11 Este 19 Sudeste 0 -- -- 36
2020-09-04 19:00:00 30.1 12 Este 22 Este 0 -- -- 32
2020-09-04 18:00:00 30.4 12 Sudeste 21 Sudeste 0 -- -- 32
2020-09-04 17:00:00 30.7 10 Este 23 Este 0 -- -- 31
2020-09-04 16:00:00 29.7 13 Este 23 Sudeste 0 -- -- 33
2020-09-04 15:00:00 29.1 12 Sudeste 24 Este 0 -- -- 35
2020-09-04 14:00:00 27.8 11 Sudeste 20 Sudeste 0 -- -- 40
2020-09-04 13:00:00 26.3 10 Sudeste 19 Este 0 -- -- 45
2020-09-04 12:00:00 24.6 11 Sudeste 20 Este 0 -- -- 53
2020-09-04 11:00:00 22.6 9 Sudeste 18 Sur 0 -- -- 59
2020-09-04 10:00:00 21.3 6 Sudeste 12 Este 0 -- -- 64
2020-09-04 09:00:00 19.5 2 Sudoeste 4 Sudoeste 0 -- -- 74
2020-09-04 08:00:00 16.7 4 Sudoeste 8 Sudoeste 0 -- -- 85
2020-09-04 07:00:00 16.1 4 Sudoeste 7 Sudoeste 0 -- -- 86
2020-09-04 06:00:00 16.4 5 Sudoeste 8 Sudoeste 0 -- -- 86
2020-09-04 05:00:00 16.6 4 Oeste 6 Noroeste 0 -- -- 86
2020-09-04 04:00:00 16.8 4 Oeste 10 Noroeste 0 -- -- 79
2020-09-04 03:00:00 17.3 6 Noroeste 9 Noroeste 0 -- -- 70
2020-09-04 02:00:00 18 2 Nordeste 12 Este 0 -- -- 70
2020-09-04 01:00:00 19.2 8 Este 12 Este 0 -- -- 64
2020-09-04 00:00:00 20.9 5 Sudeste 10 Sudeste 0 -- -- 51
2020-09-03 23:00:00 21.1 6 Sur 8 Sur 0 -- -- 44
2020-09-03 22:00:00 22.5 5 Sur 12 Sudeste 0 -- -- 44
2020-09-03 21:00:00 24.7 3 Sudoeste 11 Este 0 -- -- 41
2020-09-03 20:00:00 27.2 6 Este 18 Este 0 -- -- 35
2020-09-03 19:00:00 28.5 10 Sudeste 18 Sudeste 0 -- -- 33
2020-09-03 18:00:00 29.4 9 Sudeste 22 Sur 0 -- -- 30
2020-09-03 17:00:00 29.4 9 Este 18 Nordeste 0 -- -- 30
2020-09-03 16:00:00 29.2 9 Sudeste 20 Nordeste 0 -- -- 32
2020-09-03 15:00:00 27.4 9 Nordeste 21 Sudeste 0 -- -- 35
2020-09-03 14:00:00 27.6 8 Sur 16 Sudeste 0 -- -- 36
2020-09-03 13:00:00 25.3 9 Este 17 Este 0 -- -- 40
2020-09-03 12:00:00 23.3 7 Sudeste 15 Este 0 -- -- 48
2020-09-03 11:00:00 21.5 6 Nordeste 12 Este 0 -- -- 52
2020-09-03 10:00:00 18.4 4 Norte 10 Norte 0 -- -- 56
2020-09-03 09:00:00 16.4 4 Noroeste 7 Noroeste 0 -- -- 55
2020-09-03 08:00:00 13.8 5 Noroeste 8 Oeste 0 -- -- 62
2020-09-03 07:00:00 13.2 3 Oeste 5 Oeste 0 -- -- 62
2020-09-03 06:00:00 12.8 3 Sudoeste 8 Sudoeste 0 -- -- 64
2020-09-03 05:00:00 12.6 5 Oeste 12 Noroeste 0 -- -- 64
2020-09-03 04:00:00 14.6 6 Noroeste 11 Oeste 0 -- -- 55
2020-09-03 03:00:00 15.1 3 Sudoeste 13 Nordeste 0 -- -- 56
2020-09-03 02:00:00 16.3 10 Nordeste 15 Nordeste 0 -- -- 53
2020-09-03 01:00:00 19 10 Oeste 15 Oeste 0 -- -- 40
2020-09-03 00:00:00 19.6 15 Noroeste 20 Noroeste 0 -- -- 40
2020-09-02 23:00:00 20.6 16 Noroeste 20 Noroeste 0 -- -- 37
2020-09-02 22:00:00 21.5 12 Oeste 20 Noroeste 0 -- -- 34
2020-09-02 21:00:00 21.9 12 Noroeste 17 Noroeste 0 -- -- 35
2020-09-02 20:00:00 26.6 8 Oeste 17 Noroeste 0 -- -- 29
2020-09-02 19:00:00 28.2 9 Oeste 22 Noroeste 0 -- -- 27
2020-09-02 18:00:00 27.6 6 Nordeste 17 Nordeste 0 -- -- 30
2020-09-02 17:00:00 26.9 7 Nordeste 22 Nordeste 0 -- -- 35
2020-09-02 16:00:00 25.9 10 Nordeste 19 Norte 0 -- -- 38
2020-09-02 15:00:00 24.8 11 Norte 21 Norte 0 -- -- 40
2020-09-02 14:00:00 23.5 9 Nordeste 22 Nordeste 0 -- -- 45
2020-09-02 13:00:00 22 12 Nordeste 22 Norte 0 -- -- 49
2020-09-02 12:00:00 20.8 7 Nordeste 18 Norte 0 -- -- 53
2020-09-02 11:00:00 18.4 8 Norte 15 Norte 0 -- -- 61
2020-09-02 10:00:00 17.1 10 Norte 19 Norte 0 -- -- 62
2020-09-02 09:00:00 15.2 8 Norte 15 Noroeste 0 -- -- 69
2020-09-02 08:00:00 13.5 12 Noroeste 16 Noroeste 0 -- -- 75
2020-09-02 07:00:00 12.9 8 Noroeste 19 Norte 0 -- -- 76
2020-09-02 06:00:00 13.8 13 Noroeste 21 Noroeste 0 -- -- 73
2020-09-02 05:00:00 14.8 16 Noroeste 25 Noroeste 0 -- -- 71
2020-09-02 04:00:00 15.5 20 Noroeste 32 Noroeste 0 -- -- 69
2020-09-02 03:00:00 15.8 18 Noroeste 27 Noroeste 0 -- -- 67
2020-09-02 02:00:00 16.9 16 Noroeste 24 Noroeste 0 -- -- 57
2020-09-02 01:00:00 17.7 11 Oeste 20 Noroeste 0 -- -- 47
2020-09-02 00:00:00 18.7 16 Oeste 22 Noroeste 0 -- -- 45
2020-09-01 23:00:00 19.5 19 Noroeste 24 Noroeste 0 -- -- 41
2020-09-01 22:00:00 21.3 15 Oeste 20 Oeste 0 -- -- 34
2020-09-01 21:00:00 21.8 13 Noroeste 21 Oeste 0 -- -- 32
2020-09-01 20:00:00 25.3 5 Noroeste 12 Oeste 0 -- -- 28
2020-09-01 19:00:00 26.4 10 Este 17 Nordeste 0 -- -- 26
2020-09-01 18:00:00 28 8 Oeste 22 Oeste 0 -- -- 23
2020-09-01 17:00:00 27.1 8 Noroeste 17 Noroeste 0 -- -- 25
2020-09-01 16:00:00 24.8 9 Noroeste 17 Noroeste 0 -- -- 27
2020-09-01 15:00:00 23.7 8 Norte 15 Norte 0 -- -- 33
2020-09-01 14:00:00 22 12 Nordeste 17 Nordeste 0 -- -- 38
2020-09-01 13:00:00 22.5 9 Norte 14 Norte 0 -- -- 37
2020-09-01 12:00:00 20.9 5 Nordeste 13 Nordeste 0 -- -- 39
2020-09-01 11:00:00 19.2 8 Nordeste 14 Nordeste 0 -- -- 43
2020-09-01 10:00:00 18.5 7 Nordeste 10 Nordeste 0 -- -- 41
2020-09-01 09:00:00 15.8 6 Norte 10 Norte 0 -- -- 45
2020-09-01 08:00:00 15.2 4 Noroeste 7 Noroeste 0 -- -- 46
2020-09-01 07:00:00 15.1 6 Noroeste 9 Noroeste 0 -- -- 44
2020-09-01 06:00:00 14.6 4 Oeste 9 Oeste 0 -- -- 43
2020-09-01 05:00:00 14.3 4 Sudoeste 12 Norte 0 -- -- 43
2020-09-01 04:00:00 13.5 8 Norte 15 Norte 0 -- -- 42
2020-09-01 03:00:00 18.4 13 Noroeste 19 Oeste 0 -- -- 30
2020-09-01 02:00:00 16.4 3 Sudoeste 13 Oeste 0 -- -- 31
2020-09-01 01:00:00 18.9 8 Sudoeste 12 Sudoeste 0 -- -- 25
2020-09-01 00:00:00 19.6 5 Sudoeste 11 Sudoeste 0 -- -- 23
2020-08-31 23:00:00 19 5 Sudoeste 12 Oeste 0 -- -- 25
2020-08-31 22:00:00 19.9 3 Oeste 9 Noroeste 0 -- -- 24
2020-08-31 21:00:00 20.9 8 Noroeste 14 Noroeste 0 -- -- 23
2020-08-31 20:00:00 23.1 10 Noroeste 23 Oeste 0 -- -- 21
2020-08-31 19:00:00 25.3 14 Noroeste 22 Noroeste 0 -- -- 21
2020-08-31 18:00:00 25.4 9 Noroeste 30 Noroeste 0 -- -- 21
2020-08-31 17:00:00 25 15 Noroeste 27 Norte 0 -- -- 23
2020-08-31 16:00:00 24.4 8 Norte 23 Noroeste 0 -- -- 23
2020-08-31 15:00:00 23.8 10 Oeste 24 Oeste 0 -- -- 27
2020-08-31 14:00:00 22.1 13 Noroeste 30 Norte 0 -- -- 34
2020-08-31 13:00:00 21.3 17 Noroeste 30 Noroeste 0 -- -- 33
2020-08-31 12:00:00 20.2 15 Noroeste 25 Noroeste 0 -- -- 37
2020-08-31 11:00:00 18.1 14 Noroeste 29 Oeste 0 -- -- 45
2020-08-31 10:00:00 15.9 16 Noroeste 27 Noroeste 0 -- -- 55
2020-08-31 09:00:00 13.6 7 Norte 10 Norte 0 -- -- 65
2020-08-31 08:00:00 11.3 7 Noroeste 17 Noroeste 0 -- -- 71
2020-08-31 07:00:00 10.7 14 Noroeste 28 Noroeste 0 -- -- 74
2020-08-31 06:00:00 11.6 19 Noroeste 29 Noroeste 0 -- -- 70
2020-08-31 05:00:00 12.1 19 Noroeste 26 Noroeste 0 -- -- 66
2020-08-31 04:00:00 12.2 19 Noroeste 27 Noroeste 0 -- -- 67
2020-08-31 03:00:00 12.6 15 Noroeste 26 Noroeste 0 -- -- 65
2020-08-31 02:00:00 13.2 17 Noroeste 30 Noroeste 0 -- -- 63
2020-08-31 01:00:00 13.7 19 Noroeste 31 Noroeste 0 -- -- 62
2020-08-31 00:00:00 14.7 20 Noroeste 37 Noroeste 0 -- -- 59
2020-08-30 23:00:00 15.5 25 Noroeste 39 Noroeste 0 -- -- 55
2020-08-30 22:00:00 16.6 25 Noroeste 38 Noroeste 0 -- -- 51
2020-08-30 21:00:00 17.9 27 Noroeste 44 Noroeste 0 -- -- 47
2020-08-30 20:00:00 20 31 Noroeste 43 Noroeste 0 -- -- 42
2020-08-30 19:00:00 21.4 28 Noroeste 42 Noroeste 0 -- -- 40
2020-08-30 18:00:00 22.4 27 Noroeste 38 Noroeste 0 -- -- 38
2020-08-30 17:00:00 23.1 22 Oeste 39 Oeste 0 -- -- 36
2020-08-30 16:00:00 22.5 23 Noroeste 39 Noroeste 0 -- -- 36
2020-08-30 15:00:00 22.1 23 Noroeste 41 Oeste 0 -- -- 37
2020-08-30 14:00:00 21.1 22 Noroeste 46 Noroeste 0 -- -- 38
2020-08-30 13:00:00 20.2 30 Noroeste 46 Noroeste 0 -- -- 42
2020-08-30 12:00:00 18.9 31 Noroeste 51 Noroeste 0 -- -- 47
2020-08-30 11:00:00 17.4 35 Noroeste 53 Noroeste 0 -- -- 52
2020-08-30 10:00:00 16.2 35 Noroeste 57 Noroeste 0 -- -- 55
2020-08-30 09:00:00 14.3 35 Noroeste 57 Noroeste 0 -- -- 62
2020-08-30 08:00:00 12.6 38 Noroeste 53 Noroeste 0 -- -- 67
2020-08-30 07:00:00 12.2 32 Noroeste 50 Noroeste 0 -- -- 69
2020-08-30 06:00:00 12.7 32 Noroeste 49 Noroeste 0 -- -- 67
2020-08-30 05:00:00 12.9 32 Noroeste 54 Noroeste 0 -- -- 67
2020-08-30 04:00:00 13.1 35 Noroeste 53 Noroeste 0 -- -- 68
2020-08-30 03:00:00 13.5 41 Noroeste 55 Noroeste 0 -- -- 67
2020-08-30 02:00:00 14.2 37 Noroeste 53 Noroeste 0 -- -- 63
2020-08-30 01:00:00 14.8 36 Noroeste 59 Noroeste 0 -- -- 66
2020-08-30 00:00:00 15.1 41 Noroeste 63 Noroeste 0 -- -- 64
2020-08-29 23:00:00 15.9 42 Noroeste 58 Noroeste 0 -- -- 59
2020-08-29 22:00:00 16.6 35 Noroeste 56 Noroeste 0 -- -- 57
2020-08-29 21:00:00 17.7 37 Noroeste 60 Noroeste 0 -- -- 53
2020-08-29 20:00:00 20.2 44 Noroeste 63 Noroeste 0 -- -- 40
2020-08-29 19:00:00 21.9 45 Noroeste 67 Noroeste 0 -- -- 37
2020-08-29 18:00:00 23 41 Noroeste 60 Noroeste 0 -- -- 34
2020-08-29 17:00:00 23.6 37 Noroeste 58 Noroeste 0 -- -- 33
2020-08-29 16:00:00 23.4 40 Noroeste 58 Noroeste 0 -- -- 34
2020-08-29 15:00:00 23.2 31 Noroeste 52 Noroeste 0 -- -- 37
2020-08-29 14:00:00 22.2 30 Noroeste 49 Noroeste 0 -- -- 38
2020-08-29 13:00:00 21.3 32 Noroeste 54 Noroeste 0 -- -- 42
2020-08-29 12:00:00 18.9 31 Noroeste 50 Oeste 0 -- -- 49
2020-08-29 11:00:00 18.1 32 Noroeste 48 Noroeste 0 -- -- 53
2020-08-29 10:00:00 16.8 31 Noroeste 46 Noroeste 0 -- -- 58
2020-08-29 09:00:00 15 38 Noroeste 62 Noroeste 0 -- -- 63
2020-08-29 08:00:00 15.2 39 Noroeste 54 Noroeste 0 -- -- 59
2020-08-29 07:00:00 15.6 35 Noroeste 47 Oeste 0 -- -- 58
2020-08-29 06:00:00 15.8 28 Noroeste 40 Noroeste 0 -- -- 59
2020-08-29 05:00:00 15.7 28 Noroeste 48 Noroeste 0 -- -- 60
2020-08-29 04:00:00 16.5 32 Noroeste 48 Noroeste 0 -- -- 57
2020-08-29 03:00:00 16.7 34 Noroeste 52 Noroeste 0 -- -- 57
2020-08-29 02:00:00 17 32 Noroeste 50 Noroeste 0 -- -- 55
2020-08-29 01:00:00 17 36 Noroeste 52 Noroeste 0 -- -- 58
2020-08-29 00:00:00 17.5 35 Noroeste 51 Noroeste 0 -- -- 60
2020-08-28 23:00:00 18.8 35 Noroeste 48 Noroeste 0 -- -- 57
2020-08-28 22:00:00 20.3 34 Noroeste 48 Noroeste 0 -- -- 53
2020-08-28 21:00:00 21.8 32 Noroeste 47 Noroeste 0 -- -- 51
2020-08-28 20:00:00 24 31 Noroeste 44 Noroeste 0 -- -- 47
2020-08-28 19:00:00 27.4 21 Noroeste 36 Noroeste 0 -- -- 43
2020-08-28 18:00:00 28.5 21 Noroeste 32 Norte 0 -- -- 43
2020-08-28 17:00:00 28.6 18 Noroeste 31 Noroeste 0 -- -- 45
2020-08-28 16:00:00 28 18 Norte 27 Norte 0 -- -- 54
2020-08-28 15:00:00 27.4 13 Norte 22 Nordeste 0 -- -- 59
2020-08-28 14:00:00 26.1 9 Noroeste 15 Norte 0 -- -- 65
2020-08-28 13:00:00 25 7 Norte 13 Noroeste 0 -- -- 69
2020-08-28 12:00:00 23.4 3 Oeste 13 Oeste 0 -- -- 73
2020-08-28 11:00:00 22.3 10 Norte 13 Norte 0 -- -- 69
2020-08-28 10:00:00 21.5 7 Norte 11 Norte 0 -- -- 72
2020-08-28 09:00:00 21.1 10 Norte 14 Norte 0 -- -- 74
2020-08-28 08:00:00 20.4 9 Norte 18 Norte 0 -- -- 79
2020-08-28 07:00:00 20.4 11 Norte 14 Norte 0 -- -- 84
2020-08-28 06:00:00 21.5 6 Noroeste 13 Noroeste 0 -- -- 85
2020-08-28 05:00:00 21.4 2 Noroeste 9 Norte 0 -- -- 88
2020-08-28 04:00:00 21.7 8 Noroeste 10 Noroeste 0 -- -- 86
2020-08-28 03:00:00 22.2 4 Norte 13 Este 0 -- -- 84
2020-08-28 02:00:00 23.1 5 Nordeste 19 Sudeste 0 -- -- 79
2020-08-28 01:00:00 24.9 14 Este 19 Este 0 -- -- 70
2020-08-28 00:00:00 26.8 5 Noroeste 20 Sur 0 -- -- 58
2020-08-27 23:00:00 28.3 18 Sur 29 Sur 0 -- -- 56
2020-08-27 22:00:00 28.6 11 Sur 16 Sudoeste 0 -- -- 48
2020-08-27 21:00:00 30.9 6 Sudeste 12 Sudeste 0 -- -- 43
2020-08-27 20:00:00 33.1 8 Sudeste 15 Sudeste 0 -- -- 41
2020-08-27 19:00:00 34.2 9 Sudeste 18 Este 0 -- -- 38
2020-08-27 18:00:00 34.6 7 Sudeste 15 Norte 0 -- -- 39
2020-08-27 17:00:00 34 8 Nordeste 17 Este 0 -- -- 42
2020-08-27 16:00:00 33.3 13 Nordeste 21 Nordeste 0 -- -- 42
2020-08-27 15:00:00 32.2 6 Nordeste 17 Nordeste 0 -- -- 48
2020-08-27 14:00:00 30.4 5 Norte 14 Este 0 -- -- 53
2020-08-27 13:00:00 29 5 Sudeste 17 Nordeste 0 -- -- 59
2020-08-27 12:00:00 26.6 5 Nordeste 15 Sudeste 0 -- -- 69
2020-08-27 11:00:00 24.1 7 Sur 13 Sur 0 -- -- 77
2020-08-27 10:00:00 23.3 2 Sudeste 7 Este 0 -- -- 77
2020-08-27 09:00:00 21.9 6 Norte 9 Nordeste 0 -- -- 78
2020-08-27 08:00:00 21.3 3 Noroeste 10 Noroeste 0 -- -- 79
2020-08-27 07:00:00 20.4 10 Noroeste 11 Noroeste 0 -- -- 73
2020-08-27 06:00:00 19.8 9 Noroeste 12 Noroeste 0 -- -- 76
2020-08-27 05:00:00 21.1 7 Oeste 10 Oeste 0 -- -- 74
2020-08-27 04:00:00 21.9 0 Calma 5 Sudeste 0 -- -- 74
2020-08-27 03:00:00 23.2 3 Sur 8 Este 0 -- -- 64
2020-08-27 02:00:00 24 4 Sudeste 8 Sudeste 0 -- -- 68
2020-08-27 01:00:00 24.1 2 Sudoeste 13 Norte 0 -- -- 55
2020-08-27 00:00:00 26.2 5 Sudoeste 18 Noroeste 0 -- -- 47
2020-08-26 23:00:00 28.3 12 Noroeste 17 Noroeste 0 -- -- 44
2020-08-26 22:00:00 28.8 5 Sudoeste 12 Oeste 0 -- -- 43
2020-08-26 21:00:00 30.6 5 Sudoeste 8 Sudoeste 0 -- -- 43
2020-08-26 20:00:00 33 5 Este 15 Sudeste 0 -- -- 37
2020-08-26 19:00:00 34 8 Este 14 Sudeste 0 -- -- 35
2020-08-26 18:00:00 33.7 10 Sudeste 18 Sudeste 0 -- -- 35
2020-08-26 17:00:00 33.6 8 Este 19 Este 0 -- -- 37
2020-08-26 16:00:00 32.7 11 Sudeste 22 Sudeste 0 -- -- 40
2020-08-26 15:00:00 31.4 10 Sur 22 Sudeste 0 -- -- 47
2020-08-26 14:00:00 30.6 9 Sudeste 19 Sur 0 -- -- 51
2020-08-26 13:00:00 29.1 7 Sudeste 18 Sudeste 0 -- -- 54
2020-08-26 12:00:00 27.6 6 Sudeste 17 Este 0 -- -- 59
2020-08-26 11:00:00 25.7 8 Nordeste 15 Nordeste 0 -- -- 63
2020-08-26 10:00:00 23.4 6 Nordeste 12 Norte 0 -- -- 63
2020-08-26 09:00:00 21.6 6 Noroeste 10 Noroeste 0 -- -- 70
2020-08-26 08:00:00 19.3 8 Norte 12 Noroeste 0 -- -- 80
2020-08-26 07:00:00 19.2 5 Noroeste 11 Noroeste 0 -- -- 81
2020-08-26 06:00:00 21.2 4 Nordeste 12 Noroeste 0 -- -- 75
2020-08-26 05:00:00 21.1 5 Oeste 8 Noroeste 0 -- -- 72
2020-08-26 04:00:00 21.8 0 Calma 5 Noroeste 0 -- -- 68
2020-08-26 03:00:00 22.7 2 Nordeste 8 Noroeste 0 -- -- 60
2020-08-26 02:00:00 23.5 8 Nordeste 15 Este 0 -- -- 59
2020-08-26 01:00:00 25.1 8 Este 15 Nordeste 0 -- -- 53
2020-08-26 00:00:00 25.2 9 Nordeste 18 Nordeste 0 -- -- 48
2020-08-25 23:00:00 28.5 5 Sur 17 Sur 0 -- -- 43
2020-08-25 22:00:00 28.5 8 Sudoeste 13 Sudoeste 0 -- -- 36
2020-08-25 21:00:00 31.4 5 Sur 9 Sur 0 -- -- 33
2020-08-25 20:00:00 33.7 6 Este 13 Nordeste 0 -- -- 27
2020-08-25 19:00:00 34.5 9 Nordeste 17 Nordeste 0 -- -- 28
2020-08-25 18:00:00 34.8 11 Nordeste 17 Nordeste 0 -- -- 27
2020-08-25 17:00:00 34.6 11 Este 22 Sudeste 0 -- -- 29
2020-08-25 16:00:00 34.4 8 Este 20 Nordeste 0 -- -- 29
2020-08-25 15:00:00 32.6 7 Este 15 Este 0 -- -- 34
2020-08-25 14:00:00 31.6 6 Sudeste 16 Nordeste 0 -- -- 36
2020-08-25 13:00:00 29 8 Este 14 Este 0 -- -- 43
2020-08-25 12:00:00 27.3 8 Sur 17 Sur 0 -- -- 52
2020-08-25 11:00:00 24.9 6 Este 13 Sudeste 0 -- -- 59
2020-08-25 10:00:00 23.4 6 Sur 10 Sur 0 -- -- 54
2020-08-25 09:00:00 21.3 0 Calma 6 Sudoeste 0 -- -- 59
2020-08-25 08:00:00 18.4 3 Sudoeste 4 Sudoeste 0 -- -- 65
2020-08-25 07:00:00 17.6 4 Sudoeste 5 Sudoeste 0 -- -- 65
2020-08-25 06:00:00 17.9 2 Norte 6 Norte 0 -- -- 59
2020-08-25 05:00:00 18.3 4 Sudoeste 6 Sudoeste 0 -- -- 54
2020-08-25 04:00:00 19 0 Calma 9 Noroeste 0 -- -- 50
2020-08-25 03:00:00 19.7 8 Noroeste 11 Nordeste 0 -- -- 46
2020-08-25 02:00:00 21.2 5 Sudoeste 8 Sur 0 -- -- 42
2020-08-25 01:00:00 21.9 7 Noroeste 13 Oeste 0 -- -- 41
2020-08-25 00:00:00 20.7 9 Noroeste 15 Oeste 0 -- -- 50
2020-08-24 23:00:00 24.9 12 Oeste 18 Oeste 0 -- -- 40
2020-08-24 22:00:00 25.4 13 Oeste 20 Sudoeste 0 -- -- 40
2020-08-24 21:00:00 27.1 10 Noroeste 12 Norte 0 -- -- 27
2020-08-24 20:00:00 29.9 6 Norte 19 Noroeste 0 -- -- 25
2020-08-24 19:00:00 30.9 8 Noroeste 24 Noroeste 0 -- -- 24
2020-08-24 18:00:00 30.9 9 Noroeste 27 Oeste 0 -- -- 27
2020-08-24 17:00:00 30.7 14 Noroeste 29 Oeste 0 -- -- 28
2020-08-24 16:00:00 30.3 11 Noroeste 22 Noroeste 0 -- -- 29
2020-08-24 15:00:00 28.4 15 Noroeste 27 Noroeste 0 -- -- 33
2020-08-24 14:00:00 27.3 13 Noroeste 26 Noroeste 0 -- -- 36
2020-08-24 13:00:00 25.3 13 Noroeste 26 Noroeste 0 -- -- 39
2020-08-24 12:00:00 23.6 17 Noroeste 26 Oeste 0 -- -- 42
2020-08-24 11:00:00 21.7 17 Noroeste 34 Noroeste 0 -- -- 49
2020-08-24 10:00:00 20.1 18 Noroeste 37 Noroeste 0 -- -- 55
2020-08-24 09:00:00 18 26 Noroeste 37 Noroeste 0 -- -- 63
2020-08-24 08:00:00 16.2 13 Oeste 33 Noroeste 0 -- -- 70
2020-08-24 07:00:00 16.1 26 Noroeste 39 Noroeste 0 -- -- 70
2020-08-24 06:00:00 15.9 18 Noroeste 24 Noroeste 0 -- -- 72
2020-08-24 05:00:00 16.1 4 Noroeste 31 Noroeste 0 -- -- 72
2020-08-24 04:00:00 17 22 Noroeste 36 Noroeste 0 -- -- 68
2020-08-24 03:00:00 17.9 26 Noroeste 36 Noroeste 0 -- -- 64
2020-08-24 02:00:00 18.8 15 Noroeste 30 Oeste 0 -- -- 60
2020-08-24 01:00:00 20 15 Oeste 26 Noroeste 0 -- -- 56
2020-08-24 00:00:00 20.9 17 Noroeste 30 Noroeste 0 -- -- 53